Pittsburgh, PA (15202)

8:23 PM EST on February 05, 2016 (GMT -0500)
Perrysville | | Change Station
CLOSE
Current Station
Personal Weather Station
Location: Pittsburgh, PA
Elevation: 1175 ft
Nearby Weather Stations

Elev 1175 ft 40.54 °N, 80.04 °W | Updated 16 seconds ago

Clear
Clear
25.3 °F
Feels Like 25 °F
N
0.0
Wind Variable Wind from ESE
Gusts 0.0 mph

Today
High -- | Low -- °F
--% Chance of Precip.
Yesterday
High -- | Low -- °F
Precip. -- in
Pressure 30.42 in
Visibility 10.0 miles
Clouds Scattered Clouds 25000 ft
Windchill 25 °F
Dew Point 18 °F
Humidity 73%
Rainfall 0.00 in
Snow Depth Not available.
7:26 AM 5:42 PM
Waning Crescent, 8% visible
METAR KPIT 060051Z 00000KT 10SM SCT250 M01/M09 A3035 RMK AO2 SLP301 T10111089
Pressure 30.42 in
Visibility 10.0 miles
Clouds Scattered Clouds 25000 ft
Windchill 25 °F
Dew Point 18 °F
Humidity 73%
Rainfall 0.00 in
Snow Depth Not available.
7:26 AM 5:42 PM
Waning Crescent, 8% visible
METAR KPIT 060051Z 00000KT 10SM SCT250 M01/M09 A3035 RMK AO2 SLP301 T10111089

10-Day Weather Forecast

Almanac

Astronomy

Feb. 05, 2016 Rise Set
Actual Time
Civil Twilight
Nautical Twilight
Astronomical Twilight
Moon
Length of Visible Light
Length of Day
Tomorrow will be .
, % of the Moon is Illuminated

Today's Extremes

State Highs State Lows

Community

WunderPhotos

Upload Photos

1,890,904 photos uploaded!

WunderBlog® & News

Nearby

Air Quality

  Air Quality AQ Index Pollutant
Not available.

Snow Depth

Station Depth Elevation

Earthquake Activity

City Distance Mag. Time & Date
Minimum magnitude displayed is 2.5.

Coastal Water Temperatures

Place Temperature

Stations

Nearby Weather Stations

Station Location Temp. Windchill Dew Point Humidity Wind Precip. Elev Updated Type
                   

Watches & Warnings

There are currently no watches in effect.